<?xml version="1.0" encoding="UTF-8" standalone="no" ?>
<gpx xmlns="http://www.topografix.com/GPX/1/1" xmlns:xsi="http://www.w3.org/2001/XMLSchema-instance" xsi:schemaLocation="http://www.topografix.com/GPX/1/1 http://www.topografix.com/GPX/1/1/gpx.xsd" version="1.1" creator="VisuGPX - https://www.visugpx.com">
  <metadata>
    <name>Guerande_Coteaux_13-23km</name>
    <desc><![CDATA[gnerando idor:8655485_13112441_15426717]]></desc>
  </metadata>
  <wpt lat="47.33101" lon="-2.42582">
    <ele>47</ele>
    <name><![CDATA[0000740]]></name>
  </wpt>
  <wpt lat="47.33141" lon="-2.42578">
    <ele>46</ele>
    <name><![CDATA[0000741]]></name>
  </wpt>
  <wpt lat="47.33133" lon="-2.42668">
    <ele>46</ele>
    <name><![CDATA[0000742]]></name>
  </wpt>
  <wpt lat="47.33143" lon="-2.42554">
    <ele>46</ele>
    <name><![CDATA[0000743]]></name>
  </wpt>
  <wpt lat="47.33101" lon="-2.42582">
    <ele>47</ele>
    <name><![CDATA[0000740]]></name>
  </wpt>
  <wpt lat="47.33141" lon="-2.42578">
    <ele>46</ele>
    <name><![CDATA[0000741]]></name>
  </wpt>
  <wpt lat="47.33133" lon="-2.42668">
    <ele>46</ele>
    <name><![CDATA[0000742]]></name>
  </wpt>
  <wpt lat="47.33143" lon="-2.42554">
    <ele>46</ele>
    <name><![CDATA[0000743]]></name>
  </wpt>
  <wpt lat="47.26827" lon="-1.54438">
    <ele>26.6</ele>
    <name><![CDATA[0001501]]></name>
    <desc><![CDATA[<p><br /><h3>Nom: Segment: 1</h3><br />Heure de départ: 12/21/2023 09:39<br/>Heure d'arrivée: 12/21/2023 19:56<br/>Distance: 112,7km (10:17)<br/>Temps déplacement: 07:03<br/>Vitesse moyenne: 10,95 km/h<br/>Vitesse moyenne mouv.: 15,96 km/h<br/>Vitesse Max.: 113,77 km/h<br/>Altitude minimale: 0 m<br/>Altitude maximale: 90 m<br/>Vitesse de montée: 194,2 m/h<br/>Vitesse de descente: -228,9 m/h<br/>Gain d'altitude: 826 m<br/>Perte d'altitude: -843 m<br/>Temps de montée: 04:15<br/>Temps de descente: 03:41<br/></p>]]></desc>
    <type><![CDATA[Point d'arrivée]]></type>
  </wpt>
  <wpt lat="47.33126" lon="-2.42617">
    <ele>46.4</ele>
    <name><![CDATA[0001500]]></name>
  </wpt>
  <wpt lat="47.26827" lon="-1.54438">
    <ele>26.6</ele>
    <name><![CDATA[0001501]]></name>
    <desc><![CDATA[<p><br /><h3>Nom: Segment: 1</h3><br />Heure de départ: 12/21/2023 09:39<br/>Heure d'arrivée: 12/21/2023 19:56<br/>Distance: 112,7km (10:17)<br/>Temps déplacement: 07:03<br/>Vitesse moyenne: 10,95 km/h<br/>Vitesse moyenne mouv.: 15,96 km/h<br/>Vitesse Max.: 113,77 km/h<br/>Altitude minimale: 0 m<br/>Altitude maximale: 90 m<br/>Vitesse de montée: 194,2 m/h<br/>Vitesse de descente: -228,9 m/h<br/>Gain d'altitude: 826 m<br/>Perte d'altitude: -843 m<br/>Temps de montée: 04:15<br/>Temps de descente: 03:41<br/></]]></desc>
  </wpt>
  <trk>
    <name><![CDATA[Guérande_Coteaux_13.3km-8655485]]></name>
    <extensions>
      <line xmlns="http://www.topografix.com/GPX/gpx_style/0/2">
        <color>00FFFF</color>
        <opacity>0.85</opacity>
        <width>4</width>
      </line>
    </extensions>
    <trkseg>
      <trkpt lat="47.32856" lon="-2.43289">
        <ele>47</ele>
        <time>2023-11-01T20:06:26Z</time>
      </trkpt>
      <trkpt lat="47.32859" lon="-2.43321">
        <ele>46</ele>
        <time>2023-11-01T20:06:55Z</time>
      </trkpt>
      <trkpt lat="47.32866" lon="-2.43422">
        <ele>45</ele>
        <time>2023-11-01T20:08:27Z</time>
      </trkpt>
      <trkpt lat="47.32874" lon="-2.43528">
        <ele>46</ele>
        <time>2023-11-01T20:10:04Z</time>
      </trkpt>
      <trkpt lat="47.32897" lon="-2.43688">
        <ele>48</ele>
        <time>2023-11-01T20:12:31Z</time>
      </trkpt>
      <trkpt lat="47.32903" lon="-2.43718">
        <ele>47</ele>
        <time>2023-11-01T20:13:00Z</time>
      </trkpt>
      <trkpt lat="47.32905" lon="-2.43728">
        <ele>47</ele>
        <time>2023-11-01T20:13:09Z</time>
      </trkpt>
      <trkpt lat="47.32913" lon="-2.43742">
        <ele>47</ele>
        <time>2023-11-01T20:13:26Z</time>
      </trkpt>
      <trkpt lat="47.32917" lon="-2.43746">
        <ele>47</ele>
        <time>2023-11-01T20:13:32Z</time>
      </trkpt>
      <trkpt lat="47.32906" lon="-2.43771">
        <ele>47</ele>
        <time>2023-11-01T20:13:59Z</time>
      </trkpt>
      <trkpt lat="47.32923" lon="-2.43847">
        <ele>46</ele>
        <time>2023-11-01T20:15:12Z</time>
      </trkpt>
      <trkpt lat="47.32935" lon="-2.43902">
        <ele>47</ele>
        <time>2023-11-01T20:16:04Z</time>
      </trkpt>
      <trkpt lat="47.32937" lon="-2.43929">
        <ele>47</ele>
        <time>2023-11-01T20:16:28Z</time>
      </trkpt>
      <trkpt lat="47.32896" lon="-2.43955">
        <ele>47</ele>
        <time>2023-11-01T20:17:28Z</time>
      </trkpt>
      <trkpt lat="47.32855" lon="-2.43973">
        <ele>46</ele>
        <time>2023-11-01T20:18:25Z</time>
      </trkpt>
      <trkpt lat="47.32829" lon="-2.43983">
        <ele>46</ele>
        <time>2023-11-01T20:19:01Z</time>
      </trkpt>
      <trkpt lat="47.328" lon="-2.44139">
        <ele>44</ele>
        <time>2023-11-01T20:21:27Z</time>
      </trkpt>
      <trkpt lat="47.32776" lon="-2.44249">
        <ele>43</ele>
        <time>2023-11-01T20:23:12Z</time>
      </trkpt>
      <trkpt lat="47.32766" lon="-2.44307">
        <ele>42</ele>
        <time>2023-11-01T20:24:06Z</time>
      </trkpt>
      <trkpt lat="47.32763" lon="-2.44342">
        <ele>42</ele>
        <time>2023-11-01T20:24:38Z</time>
      </trkpt>
      <trkpt lat="47.32764" lon="-2.44376">
        <ele>43</ele>
        <time>2023-11-01T20:25:09Z</time>
      </trkpt>
      <trkpt lat="47.32766" lon="-2.44399">
        <ele>43</ele>
        <time>2023-11-01T20:25:29Z</time>
      </trkpt>
      <trkpt lat="47.3276" lon="-2.44404">
        <ele>43</ele>
        <time>2023-11-01T20:25:39Z</time>
      </trkpt>
      <trkpt lat="47.32757" lon="-2.4441">
        <ele>43</ele>
        <time>2023-11-01T20:25:45Z</time>
      </trkpt>
      <trkpt lat="47.32757" lon="-2.44417">
        <ele>43</ele>
        <time>2023-11-01T20:25:52Z</time>
      </trkpt>
      <trkpt lat="47.32756" lon="-2.44438">
        <ele>43</ele>
        <time>2023-11-01T20:26:11Z</time>
      </trkpt>
      <trkpt lat="47.32709" lon="-2.44475">
        <ele>42</ele>
        <time>2023-11-01T20:27:22Z</time>
      </trkpt>
      <trkpt lat="47.32673" lon="-2.44496">
        <ele>42</ele>
        <time>2023-11-01T20:28:14Z</time>
      </trkpt>
      <trkpt lat="47.32658" lon="-2.44526">
        <ele>42</ele>
        <time>2023-11-01T20:28:47Z</time>
      </trkpt>
      <trkpt lat="47.32629" lon="-2.44578">
        <ele>41</ele>
        <time>2023-11-01T20:29:48Z</time>
      </trkpt>
      <trkpt lat="47.32608" lon="-2.44615">
        <ele>40</ele>
        <time>2023-11-01T20:30:32Z</time>
      </trkpt>
      <trkpt lat="47.32601" lon="-2.44625">
        <ele>40</ele>
        <time>2023-11-01T20:30:45Z</time>
      </trkpt>
      <trkpt lat="47.32574" lon="-2.44664">
        <ele>40</ele>
        <time>2023-11-01T20:31:35Z</time>
      </trkpt>
      <trkpt lat="47.32539" lon="-2.44708">
        <ele>38</ele>
        <time>2023-11-01T20:32:37Z</time>
      </trkpt>
      <trkpt lat="47.32532" lon="-2.44725">
        <ele>38</ele>
        <time>2023-11-01T20:32:55Z</time>
      </trkpt>
      <trkpt lat="47.32501" lon="-2.44758">
        <ele>36</ele>
        <time>2023-11-01T20:33:46Z</time>
      </trkpt>
      <trkpt lat="47.32495" lon="-2.44764">
        <ele>36</ele>
        <time>2023-11-01T20:33:55Z</time>
      </trkpt>
      <trkpt lat="47.32355" lon="-2.44867">
        <ele>24</ele>
        <time>2023-11-01T20:37:24Z</time>
      </trkpt>
      <trkpt lat="47.32351" lon="-2.4487">
        <ele>24</ele>
        <time>2023-11-01T20:37:30Z</time>
      </trkpt>
      <trkpt lat="47.32303" lon="-2.4493">
        <ele>21</ele>
        <time>2023-11-01T20:38:54Z</time>
      </trkpt>
      <trkpt lat="47.32289" lon="-2.44948">
        <ele>20</ele>
        <time>2023-11-01T20:39:19Z</time>
      </trkpt>
      <trkpt lat="47.3226" lon="-2.44979">
        <ele>19</ele>
        <time>2023-11-01T20:40:07Z</time>
      </trkpt>
      <trkpt lat="47.32226" lon="-2.45017">
        <ele>16</ele>
        <time>2023-11-01T20:41:04Z</time>
      </trkpt>
      <trkpt lat="47.32214" lon="-2.45034">
        <ele>14</ele>
        <time>2023-11-01T20:41:26Z</time>
      </trkpt>
      <trkpt lat="47.32234" lon="-2.45082">
        <ele>14</ele>
        <time>2023-11-01T20:42:17Z</time>
      </trkpt>
      <trkpt lat="47.32246" lon="-2.45107">
        <ele>14</ele>
        <time>2023-11-01T20:42:44Z</time>
      </trkpt>
      <trkpt lat="47.32266" lon="-2.4517">
        <ele>12</ele>
        <time>2023-11-01T20:43:47Z</time>
      </trkpt>
      <trkpt lat="47.32276" lon="-2.45198">
        <ele>12</ele>
        <time>2023-11-01T20:44:16Z</time>
      </trkpt>
      <trkpt lat="47.32292" lon="-2.45232">
        <ele>12</ele>
        <time>2023-11-01T20:44:53Z</time>
      </trkpt>
      <trkpt lat="47.32294" lon="-2.45238">
        <ele>12</ele>
        <time>2023-11-01T20:44:59Z</time>
      </trkpt>
      <trkpt lat="47.32305" lon="-2.45276">
        <ele>12</ele>
        <time>2023-11-01T20:45:37Z</time>
      </trkpt>
      <trkpt lat="47.3231" lon="-2.4529">
        <ele>12</ele>
        <time>2023-11-01T20:45:51Z</time>
      </trkpt>
      <trkpt lat="47.32312" lon="-2.45302">
        <ele>12</ele>
        <time>2023-11-01T20:46:02Z</time>
      </trkpt>
      <trkpt lat="47.32316" lon="-2.45329">
        <ele>12</ele>
        <time>2023-11-01T20:46:27Z</time>
      </trkpt>
      <trkpt lat="47.32317" lon="-2.45368">
        <ele>11</ele>
        <time>2023-11-01T20:47:03Z</time>
      </trkpt>
      <trkpt lat="47.32321" lon="-2.45397">
        <ele>11</ele>
        <time>2023-11-01T20:47:29Z</time>
      </trkpt>
      <trkpt lat="47.32318" lon="-2.45399">
        <ele>11</ele>
        <time>2023-11-01T20:47:34Z</time>
      </trkpt>
      <trkpt lat="47.3231" lon="-2.45408">
        <ele>10</ele>
        <time>2023-11-01T20:47:47Z</time>
      </trkpt>
      <trkpt lat="47.32299" lon="-2.4542">
        <ele>9</ele>
        <time>2023-11-01T20:48:05Z</time>
      </trkpt>
      <trkpt lat="47.32306" lon="-2.45423">
        <ele>10</ele>
        <time>2023-11-01T20:48:15Z</time>
      </trkpt>
      <trkpt lat="47.32313" lon="-2.45429">
        <ele>10</ele>
        <time>2023-11-01T20:48:26Z</time>
      </trkpt>
      <trkpt lat="47.32319" lon="-2.45435">
        <ele>10</ele>
        <time>2023-11-01T20:48:36Z</time>
      </trkpt>
      <trkpt lat="47.3237" lon="-2.45515">
        <ele>10</ele>
        <time>2023-11-01T20:50:15Z</time>
      </trkpt>
      <trkpt lat="47.32377" lon="-2.45524">
        <ele>10</ele>
        <time>2023-11-01T20:50:27Z</time>
      </trkpt>
      <trkpt lat="47.32382" lon="-2.45536">
        <ele>10</ele>
        <time>2023-11-01T20:50:40Z</time>
      </trkpt>
      <trkpt lat="47.32398" lon="-2.45564">
        <ele>10</ele>
        <time>2023-11-01T20:51:13Z</time>
      </trkpt>
      <trkpt lat="47.32411" lon="-2.45589">
        <ele>10</ele>
        <time>2023-11-01T20:51:42Z</time>
      </trkpt>
      <trkpt lat="47.32415" lon="-2.45599">
        <ele>10</ele>
        <time>2023-11-01T20:51:52Z</time>
      </trkpt>
      <trkpt lat="47.3242" lon="-2.45612">
        <ele>10</ele>
        <time>2023-11-01T20:52:06Z</time>
      </trkpt>
      <trkpt lat="47.32425" lon="-2.45624">
        <ele>10</ele>
        <time>2023-11-01T20:52:19Z</time>
      </trkpt>
      <trkpt lat="47.32442" lon="-2.45651">
        <ele>9</ele>
        <time>2023-11-01T20:52:52Z</time>
      </trkpt>
      <trkpt lat="47.32464" lon="-2.45684">
        <ele>9</ele>
        <time>2023-11-01T20:53:34Z</time>
      </trkpt>
      <trkpt lat="47.32507" lon="-2.45759">
        <ele>8</ele>
        <time>2023-11-01T20:55:03Z</time>
      </trkpt>
      <trkpt lat="47.32527" lon="-2.45796">
        <ele>8</ele>
        <time>2023-11-01T20:55:45Z</time>
      </trkpt>
      <trkpt lat="47.32548" lon="-2.45823">
        <ele>9</ele>
        <time>2023-11-01T20:56:23Z</time>
      </trkpt>
      <trkpt lat="47.32563" lon="-2.45851">
        <ele>9</ele>
        <time>2023-11-01T20:56:55Z</time>
      </trkpt>
      <trkpt lat="47.32577" lon="-2.45871">
        <ele>9</ele>
        <time>2023-11-01T20:57:21Z</time>
      </trkpt>
      <trkpt lat="47.32607" lon="-2.45912">
        <ele>10</ele>
        <time>2023-11-01T20:58:15Z</time>
      </trkpt>
      <trkpt lat="47.32653" lon="-2.45976">
        <ele>9</ele>
        <time>2023-11-01T20:59:40Z</time>
      </trkpt>
      <trkpt lat="47.32657" lon="-2.45984">
        <ele>9</ele>
        <time>2023-11-01T20:59:49Z</time>
      </trkpt>
      <trkpt lat="47.3269" lon="-2.46023">
        <ele>10</ele>
        <time>2023-11-01T21:00:45Z</time>
      </trkpt>
      <trkpt lat="47.32717" lon="-2.46056">
        <ele>12</ele>
        <time>2023-11-01T21:01:32Z</time>
      </trkpt>
      <trkpt lat="47.32732" lon="-2.46072">
        <ele>13</ele>
        <time>2023-11-01T21:01:57Z</time>
      </trkpt>
      <trkpt lat="47.32743" lon="-2.46087">
        <ele>13</ele>
        <time>2023-11-01T21:02:17Z</time>
      </trkpt>
      <trkpt lat="47.32761" lon="-2.46116">
        <ele>14</ele>
        <time>2023-11-01T21:02:52Z</time>
      </trkpt>
      <trkpt lat="47.32767" lon="-2.46131">
        <ele>15</ele>
        <time>2023-11-01T21:03:08Z</time>
      </trkpt>
      <trkpt lat="47.32772" lon="-2.46147">
        <ele>15</ele>
        <time>2023-11-01T21:03:24Z</time>
      </trkpt>
      <trkpt lat="47.32778" lon="-2.46159">
        <ele>15</ele>
        <time>2023-11-01T21:03:37Z</time>
      </trkpt>
      <trkpt lat="47.32788" lon="-2.46173">
        <ele>16</ele>
        <time>2023-11-01T21:03:56Z</time>
      </trkpt>
      <trkpt lat="47.32807" lon="-2.4619">
        <ele>16</ele>
        <time>2023-11-01T21:04:25Z</time>
      </trkpt>
      <trkpt lat="47.32816" lon="-2.46195">
        <ele>17</ele>
        <time>2023-11-01T21:04:38Z</time>
      </trkpt>
      <trkpt lat="47.32827" lon="-2.4619">
        <ele>18</ele>
        <time>2023-11-01T21:04:54Z</time>
      </trkpt>
      <trkpt lat="47.32901" lon="-2.46145">
        <ele>24</ele>
        <time>2023-11-01T21:06:40Z</time>
      </trkpt>
      <trkpt lat="47.32904" lon="-2.46158">
        <ele>24</ele>
        <time>2023-11-01T21:06:53Z</time>
      </trkpt>
      <trkpt lat="47.32909" lon="-2.46178">
        <ele>24</ele>
        <time>2023-11-01T21:07:12Z</time>
      </trkpt>
      <trkpt lat="47.32957" lon="-2.4635">
        <ele>19</ele>
        <time>2023-11-01T21:10:00Z</time>
      </trkpt>
      <trkpt lat="47.3296" lon="-2.46371">
        <ele>18</ele>
        <time>2023-11-01T21:10:20Z</time>
      </trkpt>
      <trkpt lat="47.32962" lon="-2.46394">
        <ele>17</ele>
        <time>2023-11-01T21:10:41Z</time>
      </trkpt>
      <trkpt lat="47.32962" lon="-2.4641">
        <ele>15</ele>
        <time>2023-11-01T21:10:55Z</time>
      </trkpt>
      <trkpt lat="47.32962" lon="-2.4643">
        <ele>14</ele>
        <time>2023-11-01T21:11:13Z</time>
      </trkpt>
      <trkpt lat="47.32959" lon="-2.46502">
        <ele>10</ele>
        <time>2023-11-01T21:12:19Z</time>
      </trkpt>
      <trkpt lat="47.32957" lon="-2.46557">
        <ele>10</ele>
        <time>2023-11-01T21:13:08Z</time>
      </trkpt>
      <trkpt lat="47.32955" lon="-2.46571">
        <ele>9</ele>
        <time>2023-11-01T21:13:21Z</time>
      </trkpt>
      <trkpt lat="47.33008" lon="-2.46544">
        <ele>12</ele>
        <time>2023-11-01T21:14:36Z</time>
      </trkpt>
      <trkpt lat="47.33022" lon="-2.46539">
        <ele>13</ele>
        <time>2023-11-01T21:14:55Z</time>
      </trkpt>
      <trkpt lat="47.33035" lon="-2.46541">
        <ele>14</ele>
        <time>2023-11-01T21:15:13Z</time>
      </trkpt>
      <trkpt lat="47.33041" lon="-2.4654">
        <ele>15</ele>
        <time>2023-11-01T21:15:21Z</time>
      </trkpt>
      <trkpt lat="47.33066" lon="-2.4653">
        <ele>17</ele>
        <time>2023-11-01T21:15:55Z</time>
      </trkpt>
      <trkpt lat="47.33075" lon="-2.46526">
        <ele>18</ele>
        <time>2023-11-01T21:16:08Z</time>
      </trkpt>
      <trkpt lat="47.33078" lon="-2.46542">
        <ele>18</ele>
        <time>2023-11-01T21:16:23Z</time>
      </trkpt>
      <trkpt lat="47.33086" lon="-2.46577">
        <ele>18</ele>
        <time>2023-11-01T21:16:56Z</time>
      </trkpt>
      <trkpt lat="47.33094" lon="-2.46605">
        <ele>18</ele>
        <time>2023-11-01T21:17:24Z</time>
      </trkpt>
      <trkpt lat="47.33101" lon="-2.46625">
        <ele>18</ele>
        <time>2023-11-01T21:17:44Z</time>
      </trkpt>
      <trkpt lat="47.33108" lon="-2.4664">
        <ele>19</ele>
        <time>2023-11-01T21:18:01Z</time>
      </trkpt>
      <trkpt lat="47.33154" lon="-2.46721">
        <ele>20</ele>
        <time>2023-11-01T21:19:36Z</time>
      </trkpt>
      <trkpt lat="47.33166" lon="-2.46737">
        <ele>20</ele>
        <time>2023-11-01T21:19:58Z</time>
      </trkpt>
      <trkpt lat="47.3319" lon="-2.46767">
        <ele>21</ele>
        <time>2023-11-01T21:20:40Z</time>
      </trkpt>
      <trkpt lat="47.33192" lon="-2.4677">
        <ele>21</ele>
        <time>2023-11-01T21:20:44Z</time>
      </trkpt>
      <trkpt lat="47.33207" lon="-2.46786">
        <ele>21</ele>
        <time>2023-11-01T21:21:08Z</time>
      </trkpt>
      <trkpt lat="47.33214" lon="-2.46791">
        <ele>21</ele>
        <time>2023-11-01T21:21:19Z</time>
      </trkpt>
      <trkpt lat="47.3322" lon="-2.46794">
        <ele>22</ele>
        <time>2023-11-01T21:21:27Z</time>
      </trkpt>
      <trkpt lat="47.33226" lon="-2.46794">
        <ele>22</ele>
        <time>2023-11-01T21:21:35Z</time>
      </trkpt>
      <trkpt lat="47.33246" lon="-2.46787">
        <ele>23</ele>
        <time>2023-11-01T21:22:03Z</time>
      </trkpt>
      <trkpt lat="47.33258" lon="-2.46783">
        <ele>23</ele>
        <time>2023-11-01T21:22:19Z</time>
      </trkpt>
      <trkpt lat="47.33267" lon="-2.46785">
        <ele>24</ele>
        <time>2023-11-01T21:22:31Z</time>
      </trkpt>
      <trkpt lat="47.33271" lon="-2.46789">
        <ele>24</ele>
        <time>2023-11-01T21:22:38Z</time>
      </trkpt>
      <trkpt lat="47.33275" lon="-2.46794">
        <ele>24</ele>
        <time>2023-11-01T21:22:45Z</time>
      </trkpt>
      <trkpt lat="47.3328" lon="-2.46805">
        <ele>24</ele>
        <time>2023-11-01T21:22:57Z</time>
      </trkpt>
      <trkpt lat="47.333" lon="-2.46857">
        <ele>23</ele>
        <time>2023-11-01T21:23:51Z</time>
      </trkpt>
      <trkpt lat="47.33306" lon="-2.46876">
        <ele>22</ele>
        <time>2023-11-01T21:24:10Z</time>
      </trkpt>
      <trkpt lat="47.3331" lon="-2.46897">
        <ele>21</ele>
        <time>2023-11-01T21:24:29Z</time>
      </trkpt>
      <trkpt lat="47.3333" lon="-2.46969">
        <ele>17</ele>
        <time>2023-11-01T21:25:40Z</time>
      </trkpt>
      <trkpt lat="47.33338" lon="-2.47">
        <ele>16</ele>
        <time>2023-11-01T21:26:10Z</time>
      </trkpt>
      <trkpt lat="47.33345" lon="-2.47038">
        <ele>17</ele>
        <time>2023-11-01T21:26:45Z</time>
      </trkpt>
      <trkpt lat="47.33346" lon="-2.47048">
        <ele>17</ele>
        <time>2023-11-01T21:26:55Z</time>
      </trkpt>
      <trkpt lat="47.33347" lon="-2.47062">
        <ele>17</ele>
        <time>2023-11-01T21:27:07Z</time>
      </trkpt>
      <trkpt lat="47.3335" lon="-2.47085">
        <ele>17</ele>
        <time>2023-11-01T21:27:28Z</time>
      </trkpt>
      <trkpt lat="47.33363" lon="-2.4714">
        <ele>19</ele>
        <time>2023-11-01T21:28:21Z</time>
      </trkpt>
      <trkpt lat="47.33372" lon="-2.47203">
        <ele>20</ele>
        <time>2023-11-01T21:29:19Z</time>
      </trkpt>
      <trkpt lat="47.33377" lon="-2.47232">
        <ele>20</ele>
        <time>2023-11-01T21:29:46Z</time>
      </trkpt>
      <trkpt lat="47.33384" lon="-2.47294">
        <ele>20</ele>
        <time>2023-11-01T21:30:43Z</time>
      </trkpt>
      <trkpt lat="47.33387" lon="-2.47333">
        <ele>21</ele>
        <time>2023-11-01T21:31:19Z</time>
      </trkpt>
      <trkpt lat="47.33391" lon="-2.47354">
        <ele>21</ele>
        <time>2023-11-01T21:31:39Z</time>
      </trkpt>
      <trkpt lat="47.33396" lon="-2.47373">
        <ele>21</ele>
        <time>2023-11-01T21:31:57Z</time>
      </trkpt>
      <trkpt lat="47.33407" lon="-2.47406">
        <ele>21</ele>
        <time>2023-11-01T21:32:30Z</time>
      </trkpt>
      <trkpt lat="47.33414" lon="-2.4744">
        <ele>20</ele>
        <time>2023-11-01T21:33:02Z</time>
      </trkpt>
      <trkpt lat="47.33424" lon="-2.47476">
        <ele>20</ele>
        <time>2023-11-01T21:33:38Z</time>
      </trkpt>
      <trkpt lat="47.33442" lon="-2.4752">
        <ele>20</ele>
        <time>2023-11-01T21:34:24Z</time>
      </trkpt>
      <trkpt lat="47.33446" lon="-2.47531">
        <ele>20</ele>
        <time>2023-11-01T21:34:35Z</time>
      </trkpt>
      <trkpt lat="47.33475" lon="-2.47589">
        <ele>21</ele>
        <time>2023-11-01T21:35:41Z</time>
      </trkpt>
      <trkpt lat="47.3348" lon="-2.476">
        <ele>21</ele>
        <time>2023-11-01T21:35:52Z</time>
      </trkpt>
      <trkpt lat="47.33482" lon="-2.47601">
        <ele>21</ele>
        <time>2023-11-01T21:35:55Z</time>
      </trkpt>
      <trkpt lat="47.33488" lon="-2.47606">
        <ele>22</ele>
        <time>2023-11-01T21:36:04Z</time>
      </trkpt>
      <trkpt lat="47.33496" lon="-2.47611">
        <ele>22</ele>
        <time>2023-11-01T21:36:16Z</time>
      </trkpt>
      <trkpt lat="47.33502" lon="-2.47619">
        <ele>22</ele>
        <time>2023-11-01T21:36:27Z</time>
      </trkpt>
      <trkpt lat="47.33506" lon="-2.47628">
        <ele>21</ele>
        <time>2023-11-01T21:36:37Z</time>
      </trkpt>
      <trkpt lat="47.3352" lon="-2.47662">
        <ele>20</ele>
        <time>2023-11-01T21:37:13Z</time>
      </trkpt>
      <trkpt lat="47.33527" lon="-2.47671">
        <ele>20</ele>
        <time>2023-11-01T21:37:25Z</time>
      </trkpt>
      <trkpt lat="47.33535" lon="-2.47677">
        <ele>20</ele>
        <time>2023-11-01T21:37:37Z</time>
      </trkpt>
      <trkpt lat="47.33545" lon="-2.47681">
        <ele>20</ele>
        <time>2023-11-01T21:37:51Z</time>
      </trkpt>
      <trkpt lat="47.33549" lon="-2.47682">
        <ele>20</ele>
        <time>2023-11-01T21:37:56Z</time>
      </trkpt>
      <trkpt lat="47.33555" lon="-2.47688">
        <ele>20</ele>
        <time>2023-11-01T21:38:06Z</time>
      </trkpt>
      <trkpt lat="47.3356" lon="-2.47695">
        <ele>20</ele>
        <time>2023-11-01T21:38:15Z</time>
      </trkpt>
      <trkpt lat="47.33567" lon="-2.47701">
        <ele>20</ele>
        <time>2023-11-01T21:38:26Z</time>
      </trkpt>
      <trkpt lat="47.33575" lon="-2.47703">
        <ele>20</ele>
        <time>2023-11-01T21:38:37Z</time>
      </trkpt>
      <trkpt lat="47.33584" lon="-2.47703">
        <ele>21</ele>
        <time>2023-11-01T21:38:49Z</time>
      </trkpt>
      <trkpt lat="47.33589" lon="-2.47701">
        <ele>21</ele>
        <time>2023-11-01T21:38:56Z</time>
      </trkpt>
      <trkpt lat="47.33624" lon="-2.47669">
        <ele>21</ele>
        <time>2023-11-01T21:39:51Z</time>
      </trkpt>
      <trkpt lat="47.33675" lon="-2.47632">
        <ele>21</ele>
        <time>2023-11-01T21:41:06Z</time>
      </trkpt>
      <trkpt lat="47.33685" lon="-2.47627">
        <ele>22</ele>
        <time>2023-11-01T21:41:21Z</time>
      </trkpt>
      <trkpt lat="47.33693" lon="-2.47624">
        <ele>22</ele>
        <time>2023-11-01T21:41:32Z</time>
      </trkpt>
      <trkpt lat="47.33716" lon="-2.47622">
        <ele>22</ele>
        <time>2023-11-01T21:42:02Z</time>
      </trkpt>
      <trkpt lat="47.33729" lon="-2.47623">
        <ele>22</ele>
        <time>2023-11-01T21:42:20Z</time>
      </trkpt>
      <trkpt lat="47.33743" lon="-2.47633">
        <ele>22</ele>
        <time>2023-11-01T21:42:40Z</time>
      </trkpt>
      <trkpt lat="47.33752" lon="-2.47639">
        <ele>22</ele>
        <time>2023-11-01T21:42:54Z</time>
      </trkpt>
      <trkpt lat="47.33755" lon="-2.47642">
        <ele>22</ele>
        <time>2023-11-01T21:42:58Z</time>
      </trkpt>
      <trkpt lat="47.3376" lon="-2.47654">
        <ele>22</ele>
        <time>2023-11-01T21:43:11Z</time>
      </trkpt>
      <trkpt lat="47.33767" lon="-2.47669">
        <ele>22</ele>
        <time>2023-11-01T21:43:28Z</time>
      </trkpt>
      <trkpt lat="47.33801" lon="-2.47713">
        <ele>21</ele>
        <time>2023-11-01T21:44:28Z</time>
      </trkpt>
      <trkpt lat="47.33818" lon="-2.47736">
        <ele>20</ele>
        <time>2023-11-01T21:44:59Z</time>
      </trkpt>
      <trkpt lat="47.33845" lon="-2.47767">
        <ele>20</ele>
        <time>2023-11-01T21:45:44Z</time>
      </trkpt>
      <trkpt lat="47.3385" lon="-2.47775">
        <ele>20</ele>
        <time>2023-11-01T21:45:54Z</time>
      </trkpt>
      <trkpt lat="47.33851" lon="-2.47778">
        <ele>20</ele>
        <time>2023-11-01T21:45:57Z</time>
      </trkpt>
      <trkpt lat="47.33851" lon="-2.47783">
        <ele>19</ele>
        <time>2023-11-01T21:46:02Z</time>
      </trkpt>
      <trkpt lat="47.33848" lon="-2.47795">
        <ele>19</ele>
        <time>2023-11-01T21:46:13Z</time>
      </trkpt>
      <trkpt lat="47.33845" lon="-2.47805">
        <ele>19</ele>
        <time>2023-11-01T21:46:23Z</time>
      </trkpt>
      <trkpt lat="47.33839" lon="-2.47818">
        <ele>18</ele>
        <time>2023-11-01T21:46:37Z</time>
      </trkpt>
      <trkpt lat="47.3383" lon="-2.47831">
        <ele>17</ele>
        <time>2023-11-01T21:46:54Z</time>
      </trkpt>
      <trkpt lat="47.33816" lon="-2.47856">
        <ele>16</ele>
        <time>2023-11-01T21:47:24Z</time>
      </trkpt>
      <trkpt lat="47.33787" lon="-2.47905">
        <ele>15</ele>
        <time>2023-11-01T21:48:22Z</time>
      </trkpt>
      <trkpt lat="47.33768" lon="-2.47945">
        <ele>14</ele>
        <time>2023-11-01T21:49:07Z</time>
      </trkpt>
      <trkpt lat="47.33753" lon="-2.47995">
        <ele>13</ele>
        <time>2023-11-01T21:49:56Z</time>
      </trkpt>
      <trkpt lat="47.33743" lon="-2.48049">
        <ele>12</ele>
        <time>2023-11-01T21:50:47Z</time>
      </trkpt>
      <trkpt lat="47.33731" lon="-2.48113">
        <ele>11</ele>
        <time>2023-11-01T21:51:47Z</time>
      </trkpt>
      <trkpt lat="47.33722" lon="-2.48252">
        <ele>9</ele>
        <time>2023-11-01T21:53:53Z</time>
      </trkpt>
      <trkpt lat="47.33721" lon="-2.48274">
        <ele>9</ele>
        <time>2023-11-01T21:54:13Z</time>
      </trkpt>
      <trkpt lat="47.33721" lon="-2.48292">
        <ele>9</ele>
        <time>2023-11-01T21:54:29Z</time>
      </trkpt>
      <trkpt lat="47.33722" lon="-2.48314">
        <ele>9</ele>
        <time>2023-11-01T21:54:49Z</time>
      </trkpt>
      <trkpt lat="47.33725" lon="-2.48329">
        <ele>9</ele>
        <time>2023-11-01T21:55:03Z</time>
      </trkpt>
      <trkpt lat="47.33734" lon="-2.48326">
        <ele>9</ele>
        <time>2023-11-01T21:55:16Z</time>
      </trkpt>
      <trkpt lat="47.33756" lon="-2.48314">
        <ele>10</ele>
        <time>2023-11-01T21:55:47Z</time>
      </trkpt>
      <trkpt lat="47.33768" lon="-2.48306">
        <ele>10</ele>
        <time>2023-11-01T21:56:04Z</time>
      </trkpt>
      <trkpt lat="47.33787" lon="-2.48296">
        <ele>11</ele>
        <time>2023-11-01T21:56:31Z</time>
      </trkpt>
      <trkpt lat="47.33793" lon="-2.48291">
        <ele>11</ele>
        <time>2023-11-01T21:56:41Z</time>
      </trkpt>
      <trkpt lat="47.33853" lon="-2.48272">
        <ele>12</ele>
        <time>2023-11-01T21:58:02Z</time>
      </trkpt>
      <trkpt lat="47.33868" lon="-2.48268">
        <ele>12</ele>
        <time>2023-11-01T21:58:23Z</time>
      </trkpt>
      <trkpt lat="47.33896" lon="-2.48256">
        <ele>13</ele>
        <time>2023-11-01T21:59:02Z</time>
      </trkpt>
      <trkpt lat="47.33934" lon="-2.48231">
        <ele>13</ele>
        <time>2023-11-01T21:59:57Z</time>
      </trkpt>
      <trkpt lat="47.33944" lon="-2.48226">
        <ele>13</ele>
        <time>2023-11-01T22:00:11Z</time>
      </trkpt>
      <trkpt lat="47.33955" lon="-2.48222">
        <ele>13</ele>
        <time>2023-11-01T22:00:26Z</time>
      </trkpt>
      <trkpt lat="47.3396" lon="-2.48222">
        <ele>13</ele>
        <time>2023-11-01T22:00:33Z</time>
      </trkpt>
      <trkpt lat="47.33965" lon="-2.48221">
        <ele>13</ele>
        <time>2023-11-01T22:00:40Z</time>
      </trkpt>
      <trkpt lat="47.33975" lon="-2.48223">
        <ele>13</ele>
        <time>2023-11-01T22:00:53Z</time>
      </trkpt>
      <trkpt lat="47.33994" lon="-2.48229">
        <ele>13</ele>
        <time>2023-11-01T22:01:19Z</time>
      </trkpt>
      <trkpt lat="47.34032" lon="-2.48243">
        <ele>13</ele>
        <time>2023-11-01T22:02:12Z</time>
      </trkpt>
      <trkpt lat="47.34124" lon="-2.48266">
        <ele>11</ele>
        <time>2023-11-01T22:04:16Z</time>
      </trkpt>
      <trkpt lat="47.34141" lon="-2.48274">
        <ele>10</ele>
        <time>2023-11-01T22:04:40Z</time>
      </trkpt>
      <trkpt lat="47.34158" lon="-2.48288">
        <ele>10</ele>
        <time>2023-11-01T22:05:06Z</time>
      </trkpt>
      <trkpt lat="47.34182" lon="-2.48316">
        <ele>9</ele>
        <time>2023-11-01T22:05:47Z</time>
      </trkpt>
      <trkpt lat="47.34213" lon="-2.48353">
        <ele>9</ele>
        <time>2023-11-01T22:06:40Z</time>
      </trkpt>
      <trkpt lat="47.34227" lon="-2.48368">
        <ele>9</ele>
        <time>2023-11-01T22:07:03Z</time>
      </trkpt>
      <trkpt lat="47.34231" lon="-2.48371">
        <ele>9</ele>
        <time>2023-11-01T22:07:09Z</time>
      </trkpt>
      <trkpt lat="47.34253" lon="-2.4838">
        <ele>9</ele>
        <time>2023-11-01T22:07:39Z</time>
      </trkpt>
      <trkpt lat="47.34268" lon="-2.48384">
        <ele>10</ele>
        <time>2023-11-01T22:08:00Z</time>
      </trkpt>
      <trkpt lat="47.34283" lon="-2.48382">
        <ele>10</ele>
        <time>2023-11-01T22:08:20Z</time>
      </trkpt>
      <trkpt lat="47.343" lon="-2.48375">
        <ele>10</ele>
        <time>2023-11-01T22:08:43Z</time>
      </trkpt>
      <trkpt lat="47.34313" lon="-2.48373">
        <ele>10</ele>
        <time>2023-11-01T22:09:01Z</time>
      </trkpt>
      <trkpt lat="47.3433" lon="-2.48374">
        <ele>10</ele>
        <time>2023-11-01T22:09:24Z</time>
      </trkpt>
      <trkpt lat="47.34347" lon="-2.48382">
        <ele>13</ele>
        <time>2023-11-01T22:09:47Z</time>
      </trkpt>
      <trkpt lat="47.34366" lon="-2.48389">
        <ele>16</ele>
        <time>2023-11-01T22:10:14Z</time>
      </trkpt>
      <trkpt lat="47.34381" lon="-2.48391">
        <ele>17</ele>
        <time>2023-11-01T22:10:34Z</time>
      </trkpt>
      <trkpt lat="47.34389" lon="-2.48389">
        <ele>18</ele>
        <time>2023-11-01T22:10:44Z</time>
      </trkpt>
      <trkpt lat="47.34396" lon="-2.48402">
        <ele>20</ele>
        <time>2023-11-01T22:10:59Z</time>
      </trkpt>
      <trkpt lat="47.34436" lon="-2.48435">
        <ele>23</ele>
        <time>2023-11-01T22:12:01Z</time>
      </trkpt>
      <trkpt lat="47.34444" lon="-2.48443">
        <ele>23</ele>
        <time>2023-11-01T22:12:13Z</time>
      </trkpt>
      <trkpt lat="47.34469" lon="-2.48486">
        <ele>23</ele>
        <time>2023-11-01T22:13:05Z</time>
      </trkpt>
      <trkpt lat="47.34475" lon="-2.48494">
        <ele>24</ele>
        <time>2023-11-01T22:13:16Z</time>
      </trkpt>
      <trkpt lat="47.34487" lon="-2.48495">
        <ele>24</ele>
        <time>2023-11-01T22:13:32Z</time>
      </trkpt>
      <trkpt lat="47.34498" lon="-2.48495">
        <ele>25</ele>
        <time>2023-11-01T22:13:46Z</time>
      </trkpt>
      <trkpt lat="47.34509" lon="-2.48494">
        <ele>26</ele>
        <time>2023-11-01T22:14:01Z</time>
      </trkpt>
      <trkpt lat="47.34509" lon="-2.48517">
        <ele>25</ele>
        <time>2023-11-01T22:14:22Z</time>
      </trkpt>
      <trkpt lat="47.3452" lon="-2.4852">
        <ele>26</ele>
        <time>2023-11-01T22:14:37Z</time>
      </trkpt>
      <trkpt lat="47.34527" lon="-2.4853">
        <ele>26</ele>
        <time>2023-11-01T22:14:50Z</time>
      </trkpt>
      <trkpt lat="47.34534" lon="-2.48544">
        <ele>26</ele>
        <time>2023-11-01T22:15:05Z</time>
      </trkpt>
      <trkpt lat="47.34547" lon="-2.48526">
        <ele>27</ele>
        <time>2023-11-01T22:15:29Z</time>
      </trkpt>
      <trkpt lat="47.34549" lon="-2.48518">
        <ele>27</ele>
        <time>2023-11-01T22:15:37Z</time>
      </trkpt>
      <trkpt lat="47.34549" lon="-2.48505">
        <ele>28</ele>
        <time>2023-11-01T22:15:49Z</time>
      </trkpt>
      <trkpt lat="47.34546" lon="-2.48476">
        <ele>28</ele>
        <time>2023-11-01T22:16:15Z</time>
      </trkpt>
      <trkpt lat="47.34554" lon="-2.48495">
        <ele>28</ele>
        <time>2023-11-01T22:16:35Z</time>
      </trkpt>
      <trkpt lat="47.34582" lon="-2.48536">
        <ele>29</ele>
        <time>2023-11-01T22:17:28Z</time>
      </trkpt>
      <trkpt lat="47.34607" lon="-2.48572">
        <ele>27</ele>
        <time>2023-11-01T22:18:15Z</time>
      </trkpt>
      <trkpt lat="47.34637" lon="-2.48608">
        <ele>26</ele>
        <time>2023-11-01T22:19:06Z</time>
      </trkpt>
      <trkpt lat="47.34645" lon="-2.48615">
        <ele>26</ele>
        <time>2023-11-01T22:19:19Z</time>
      </trkpt>
      <trkpt lat="47.34658" lon="-2.48641">
        <ele>26</ele>
        <time>2023-11-01T22:19:48Z</time>
      </trkpt>
      <trkpt lat="47.3468" lon="-2.48681">
        <ele>26</ele>
        <time>2023-11-01T22:20:34Z</time>
      </trkpt>
      <trkpt lat="47.34689" lon="-2.48701">
        <ele>25</ele>
        <time>2023-11-01T22:20:56Z</time>
      </trkpt>
      <trkpt lat="47.34695" lon="-2.48713">
        <ele>25</ele>
        <time>2023-11-01T22:21:10Z</time>
      </trkpt>
      <trkpt lat="47.34702" lon="-2.48733">
        <ele>25</ele>
        <time>2023-11-01T22:21:30Z</time>
      </trkpt>
      <trkpt lat="47.347" lon="-2.48748">
        <ele>24</ele>
        <time>2023-11-01T22:21:44Z</time>
      </trkpt>
      <trkpt lat="47.34701" lon="-2.48764">
        <ele>24</ele>
        <time>2023-11-01T22:21:58Z</time>
      </trkpt>
      <trkpt lat="47.34709" lon="-2.48784">
        <ele>24</ele>
        <time>2023-11-01T22:22:19Z</time>
      </trkpt>
      <trkpt lat="47.34712" lon="-2.48795">
        <ele>24</ele>
        <time>2023-11-01T22:22:30Z</time>
      </trkpt>
      <trkpt lat="47.34715" lon="-2.48806">
        <ele>24</ele>
        <time>2023-11-01T22:22:41Z</time>
      </trkpt>
      <trkpt lat="47.34718" lon="-2.48833">
        <ele>23</ele>
        <time>2023-11-01T22:23:06Z</time>
      </trkpt>
      <trkpt lat="47.34723" lon="-2.48851">
        <ele>23</ele>
        <time>2023-11-01T22:23:23Z</time>
      </trkpt>
      <trkpt lat="47.34729" lon="-2.48863">
        <ele>24</ele>
        <time>2023-11-01T22:23:37Z</time>
      </trkpt>
      <trkpt lat="47.34747" lon="-2.4886">
        <ele>25</ele>
        <time>2023-11-01T22:24:01Z</time>
      </trkpt>
      <trkpt lat="47.3482" lon="-2.48857">
        <ele>28</ele>
        <time>2023-11-01T22:25:38Z</time>
      </trkpt>
      <trkpt lat="47.34831" lon="-2.4886">
        <ele>29</ele>
        <time>2023-11-01T22:25:53Z</time>
      </trkpt>
      <trkpt lat="47.34836" lon="-2.48848">
        <ele>29</ele>
        <time>2023-11-01T22:26:06Z</time>
      </trkpt>
      <trkpt lat="47.34886" lon="-2.48789">
        <ele>34</ele>
        <time>2023-11-01T22:27:31Z</time>
      </trkpt>
      <trkpt lat="47.34901" lon="-2.48767">
        <ele>36</ele>
        <time>2023-11-01T22:28:00Z</time>
      </trkpt>
      <trkpt lat="47.34906" lon="-2.48751">
        <ele>38</ele>
        <time>2023-11-01T22:28:15Z</time>
      </trkpt>
      <trkpt lat="47.34908" lon="-2.48742">
        <ele>38</ele>
        <time>2023-11-01T22:28:24Z</time>
      </trkpt>
      <trkpt lat="47.34909" lon="-2.48735">
        <ele>38</ele>
        <time>2023-11-01T22:28:31Z</time>
      </trkpt>
      <trkpt lat="47.3491" lon="-2.4872">
        <ele>38</ele>
        <time>2023-11-01T22:28:44Z</time>
      </trkpt>
      <trkpt lat="47.34909" lon="-2.48701">
        <ele>38</ele>
        <time>2023-11-01T22:29:01Z</time>
      </trkpt>
      <trkpt lat="47.34903" lon="-2.48676">
        <ele>37</ele>
        <time>2023-11-01T22:29:25Z</time>
      </trkpt>
      <trkpt lat="47.3491" lon="-2.48675">
        <ele>38</ele>
        <time>2023-11-01T22:29:35Z</time>
      </trkpt>
      <trkpt lat="47.34912" lon="-2.48672">
        <ele>38</ele>
        <time>2023-11-01T22:29:39Z</time>
      </trkpt>
      <trkpt lat="47.34921" lon="-2.48622">
        <ele>36</ele>
        <time>2023-11-01T22:30:25Z</time>
      </trkpt>
      <trkpt lat="47.34927" lon="-2.48611">
        <ele>36</ele>
        <time>2023-11-01T22:30:38Z</time>
      </trkpt>
      <trkpt lat="47.34941" lon="-2.48593">
        <ele>35</ele>
        <time>2023-11-01T22:31:03Z</time>
      </trkpt>
      <trkpt lat="47.34951" lon="-2.4858">
        <ele>34</ele>
        <time>2023-11-01T22:31:21Z</time>
      </trkpt>
      <trkpt lat="47.34973" lon="-2.48558">
        <ele>34</ele>
        <time>2023-11-01T22:31:56Z</time>
      </trkpt>
      <trkpt lat="47.34991" lon="-2.48542">
        <ele>34</ele>
        <time>2023-11-01T22:32:24Z</time>
      </trkpt>
      <trkpt lat="47.3501" lon="-2.48528">
        <ele>33</ele>
        <time>2023-11-01T22:32:52Z</time>
      </trkpt>
      <trkpt lat="47.35018" lon="-2.48522">
        <ele>33</ele>
        <time>2023-11-01T22:33:04Z</time>
      </trkpt>
      <trkpt lat="47.35046" lon="-2.48507">
        <ele>33</ele>
        <time>2023-11-01T22:33:44Z</time>
      </trkpt>
      <trkpt lat="47.35049" lon="-2.48505">
        <ele>33</ele>
        <time>2023-11-01T22:33:49Z</time>
      </trkpt>
      <trkpt lat="47.35078" lon="-2.48486">
        <ele>32</ele>
        <time>2023-11-01T22:34:31Z</time>
      </trkpt>
      <trkpt lat="47.35092" lon="-2.48477">
        <ele>32</ele>
        <time>2023-11-01T22:34:51Z</time>
      </trkpt>
      <trkpt lat="47.3511" lon="-2.48458">
        <ele>33</ele>
        <time>2023-11-01T22:35:21Z</time>
      </trkpt>
      <trkpt lat="47.3512" lon="-2.48448">
        <ele>32</ele>
        <time>2023-11-01T22:35:37Z</time>
      </trkpt>
      <trkpt lat="47.3514" lon="-2.48419">
        <ele>32</ele>
        <time>2023-11-01T22:36:14Z</time>
      </trkpt>
      <trkpt lat="47.35161" lon="-2.48389">
        <ele>32</ele>
        <time>2023-11-01T22:36:53Z</time>
      </trkpt>
      <trkpt lat="47.35223" lon="-2.48312">
        <ele>33</ele>
        <time>2023-11-01T22:38:42Z</time>
      </trkpt>
      <trkpt lat="47.35255" lon="-2.48274">
        <ele>32</ele>
        <time>2023-11-01T22:39:36Z</time>
      </trkpt>
      <trkpt lat="47.35269" lon="-2.48254">
        <ele>32</ele>
        <time>2023-11-01T22:40:02Z</time>
      </trkpt>
      <trkpt lat="47.35277" lon="-2.48236">
        <ele>32</ele>
        <time>2023-11-01T22:40:22Z</time>
      </trkpt>
      <trkpt lat="47.35292" lon="-2.48209">
        <ele>32</ele>
        <time>2023-11-01T22:40:53Z</time>
      </trkpt>
      <trkpt lat="47.35339" lon="-2.48149">
        <ele>31</ele>
        <time>2023-11-01T22:42:16Z</time>
      </trkpt>
      <trkpt lat="47.35343" lon="-2.48133">
        <ele>31</ele>
        <time>2023-11-01T22:42:32Z</time>
      </trkpt>
      <trkpt lat="47.3534" lon="-2.48127">
        <ele>31</ele>
        <time>2023-11-01T22:42:38Z</time>
      </trkpt>
      <trkpt lat="47.35305" lon="-2.48076">
        <ele>32</ele>
        <time>2023-11-01T22:43:44Z</time>
      </trkpt>
      <trkpt lat="47.35295" lon="-2.48058">
        <ele>32</ele>
        <time>2023-11-01T22:44:05Z</time>
      </trkpt>
      <trkpt lat="47.3529" lon="-2.48055">
        <ele>32</ele>
        <time>2023-11-01T22:44:12Z</time>
      </trkpt>
      <trkpt lat="47.35283" lon="-2.48054">
        <ele>32</ele>
        <time>2023-11-01T22:44:22Z</time>
      </trkpt>
      <trkpt lat="47.35256" lon="-2.4806">
        <ele>33</ele>
        <time>2023-11-01T22:44:58Z</time>
      </trkpt>
      <trkpt lat="47.35234" lon="-2.48082">
        <ele>33</ele>
        <time>2023-11-01T22:45:34Z</time>
      </trkpt>
      <trkpt lat="47.35206" lon="-2.48115">
        <ele>33</ele>
        <time>2023-11-01T22:46:21Z</time>
      </trkpt>
      <trkpt lat="47.35178" lon="-2.48146">
        <ele>34</ele>
        <time>2023-11-01T22:47:08Z</time>
      </trkpt>
      <trkpt lat="47.35167" lon="-2.4816">
        <ele>34</ele>
        <time>2023-11-01T22:47:28Z</time>
      </trkpt>
      <trkpt lat="47.35162" lon="-2.4817">
        <ele>34</ele>
        <time>2023-11-01T22:47:39Z</time>
      </trkpt>
      <trkpt lat="47.35159" lon="-2.48181">
        <ele>34</ele>
        <time>2023-11-01T22:47:49Z</time>
      </trkpt>
      <trkpt lat="47.35154" lon="-2.48189">
        <ele>34</ele>
        <time>2023-11-01T22:47:59Z</time>
      </trkpt>
      <trkpt lat="47.35134" lon="-2.48208">
        <ele>35</ele>
        <time>2023-11-01T22:48:31Z</time>
      </trkpt>
      <trkpt lat="47.35117" lon="-2.48219">
        <ele>35</ele>
        <time>2023-11-01T22:48:56Z</time>
      </trkpt>
      <trkpt lat="47.35102" lon="-2.48228">
        <ele>36</ele>
        <time>2023-11-01T22:49:17Z</time>
      </trkpt>
      <trkpt lat="47.35092" lon="-2.48231">
        <ele>36</ele>
        <time>2023-11-01T22:49:31Z</time>
      </trkpt>
      <trkpt lat="47.35087" lon="-2.48208">
        <ele>36</ele>
        <time>2023-11-01T22:49:53Z</time>
      </trkpt>
      <trkpt lat="47.35084" lon="-2.482">
        <ele>37</ele>
        <time>2023-11-01T22:50:01Z</time>
      </trkpt>
      <trkpt lat="47.35077" lon="-2.48191">
        <ele>37</ele>
        <time>2023-11-01T22:50:14Z</time>
      </trkpt>
      <trkpt lat="47.35068" lon="-2.48178">
        <ele>37</ele>
        <time>2023-11-01T22:50:30Z</time>
      </trkpt>
      <trkpt lat="47.35059" lon="-2.48164">
        <ele>38</ele>
        <time>2023-11-01T22:50:48Z</time>
      </trkpt>
      <trkpt lat="47.35051" lon="-2.48149">
        <ele>37</ele>
        <time>2023-11-01T22:51:05Z</time>
      </trkpt>
      <trkpt lat="47.35049" lon="-2.48142">
        <ele>37</ele>
        <time>2023-11-01T22:51:12Z</time>
      </trkpt>
      <trkpt lat="47.35047" lon="-2.48134">
        <ele>37</ele>
        <time>2023-11-01T22:51:20Z</time>
      </trkpt>
      <trkpt lat="47.35044" lon="-2.4812">
        <ele>37</ele>
        <time>2023-11-01T22:51:33Z</time>
      </trkpt>
      <trkpt lat="47.35039" lon="-2.481">
        <ele>37</ele>
        <time>2023-11-01T22:51:52Z</time>
      </trkpt>
      <trkpt lat="47.35034" lon="-2.48086">
        <ele>37</ele>
        <time>2023-11-01T22:52:06Z</time>
      </trkpt>
      <trkpt lat="47.3503" lon="-2.48079">
        <ele>37</ele>
        <time>2023-11-01T22:52:15Z</time>
      </trkpt>
      <trkpt lat="47.35026" lon="-2.48074">
        <ele>37</ele>
        <time>2023-11-01T22:52:22Z</time>
      </trkpt>
      <trkpt lat="47.35029" lon="-2.4807">
        <ele>37</ele>
        <time>2023-11-01T22:52:27Z</time>
      </trkpt>
      <trkpt lat="47.35032" lon="-2.48062">
        <ele>37</ele>
        <time>2023-11-01T22:52:35Z</time>
      </trkpt>
      <trkpt lat="47.35033" lon="-2.48056">
        <ele>37</ele>
        <time>2023-11-01T22:52:41Z</time>
      </trkpt>
      <trkpt lat="47.35034" lon="-2.48045">
        <ele>37</ele>
        <time>2023-11-01T22:52:51Z</time>
      </trkpt>
      <trkpt lat="47.35034" lon="-2.4803">
        <ele>36</ele>
        <time>2023-11-01T22:53:05Z</time>
      </trkpt>
      <trkpt lat="47.35034" lon="-2.48009">
        <ele>36</ele>
        <time>2023-11-01T22:53:24Z</time>
      </trkpt>
      <trkpt lat="47.35033" lon="-2.47973">
        <ele>36</ele>
        <time>2023-11-01T22:53:56Z</time>
      </trkpt>
      <trkpt lat="47.35034" lon="-2.47945">
        <ele>36</ele>
        <time>2023-11-01T22:54:22Z</time>
      </trkpt>
      <trkpt lat="47.35035" lon="-2.4791">
        <ele>36</ele>
        <time>2023-11-01T22:54:53Z</time>
      </trkpt>
      <trkpt lat="47.35045" lon="-2.47706">
        <ele>37</ele>
        <time>2023-11-01T22:57:58Z</time>
      </trkpt>
      <trkpt lat="47.35048" lon="-2.4769">
        <ele>36</ele>
        <time>2023-11-01T22:58:13Z</time>
      </trkpt>
      <trkpt lat="47.35044" lon="-2.47683">
        <ele>36</ele>
        <time>2023-11-01T22:58:21Z</time>
      </trkpt>
      <trkpt lat="47.35042" lon="-2.47669">
        <ele>36</ele>
        <time>2023-11-01T22:58:34Z</time>
      </trkpt>
      <trkpt lat="47.3504" lon="-2.47631">
        <ele>36</ele>
        <time>2023-11-01T22:59:09Z</time>
      </trkpt>
      <trkpt lat="47.35017" lon="-2.47366">
        <ele>39</ele>
        <time>2023-11-01T23:03:10Z</time>
      </trkpt>
      <trkpt lat="47.35016" lon="-2.47357">
        <ele>39</ele>
        <time>2023-11-01T23:03:19Z</time>
      </trkpt>
      <trkpt lat="47.34993" lon="-2.47275">
        <ele>40</ele>
        <time>2023-11-01T23:04:39Z</time>
      </trkpt>
      <trkpt lat="47.34973" lon="-2.47216">
        <ele>40</ele>
        <time>2023-11-01T23:05:38Z</time>
      </trkpt>
      <trkpt lat="47.3494" lon="-2.47128">
        <ele>42</ele>
        <time>2023-11-01T23:07:09Z</time>
      </trkpt>
      <trkpt lat="47.34927" lon="-2.47091">
        <ele>43</ele>
        <time>2023-11-01T23:07:47Z</time>
      </trkpt>
      <trkpt lat="47.34914" lon="-2.47062">
        <ele>43</ele>
        <time>2023-11-01T23:08:19Z</time>
      </trkpt>
      <trkpt lat="47.34909" lon="-2.47049">
        <ele>43</ele>
        <time>2023-11-01T23:08:32Z</time>
      </trkpt>
      <trkpt lat="47.349" lon="-2.47011">
        <ele>43</ele>
        <time>2023-11-01T23:09:08Z</time>
      </trkpt>
      <trkpt lat="47.34892" lon="-2.46969">
        <ele>43</ele>
        <time>2023-11-01T23:09:48Z</time>
      </trkpt>
      <trkpt lat="47.3489" lon="-2.46941">
        <ele>42</ele>
        <time>2023-11-01T23:10:13Z</time>
      </trkpt>
      <trkpt lat="47.34887" lon="-2.46921">
        <ele>42</ele>
        <time>2023-11-01T23:10:32Z</time>
      </trkpt>
      <trkpt lat="47.34883" lon="-2.46899">
        <ele>42</ele>
        <time>2023-11-01T23:10:52Z</time>
      </trkpt>
      <trkpt lat="47.34873" lon="-2.46852">
        <ele>41</ele>
        <time>2023-11-01T23:11:37Z</time>
      </trkpt>
      <trkpt lat="47.34869" lon="-2.46823">
        <ele>41</ele>
        <time>2023-11-01T23:12:04Z</time>
      </trkpt>
      <trkpt lat="47.34865" lon="-2.46752">
        <ele>41</ele>
        <time>2023-11-01T23:13:08Z</time>
      </trkpt>
      <trkpt lat="47.34858" lon="-2.46657">
        <ele>41</ele>
        <time>2023-11-01T23:14:35Z</time>
      </trkpt>
      <trkpt lat="47.34849" lon="-2.46559">
        <ele>38</ele>
        <time>2023-11-01T23:16:04Z</time>
      </trkpt>
      <trkpt lat="47.34847" lon="-2.46535">
        <ele>38</ele>
        <time>2023-11-01T23:16:26Z</time>
      </trkpt>
      <trkpt lat="47.34848" lon="-2.46507">
        <ele>37</ele>
        <time>2023-11-01T23:16:51Z</time>
      </trkpt>
      <trkpt lat="47.34847" lon="-2.46475">
        <ele>37</ele>
        <time>2023-11-01T23:17:20Z</time>
      </trkpt>
      <trkpt lat="47.34844" lon="-2.46446">
        <ele>38</ele>
        <time>2023-11-01T23:17:47Z</time>
      </trkpt>
      <trkpt lat="47.34839" lon="-2.46394">
        <ele>38</ele>
        <time>2023-11-01T23:18:34Z</time>
      </trkpt>
      <trkpt lat="47.34833" lon="-2.4635">
        <ele>38</ele>
        <time>2023-11-01T23:19:15Z</time>
      </trkpt>
      <trkpt lat="47.34826" lon="-2.46303">
        <ele>38</ele>
        <time>2023-11-01T23:19:58Z</time>
      </trkpt>
      <trkpt lat="47.34824" lon="-2.46287">
        <ele>38</ele>
        <time>2023-11-01T23:20:13Z</time>
      </trkpt>
      <trkpt lat="47.34824" lon="-2.46275">
        <ele>39</ele>
        <time>2023-11-01T23:20:24Z</time>
      </trkpt>
      <trkpt lat="47.34824" lon="-2.4627">
        <ele>39</ele>
        <time>2023-11-01T23:20:28Z</time>
      </trkpt>
      <trkpt lat="47.34823" lon="-2.46262">
        <ele>39</ele>
        <time>2023-11-01T23:20:36Z</time>
      </trkpt>
      <trkpt lat="47.34818" lon="-2.4625">
        <ele>39</ele>
        <time>2023-11-01T23:20:48Z</time>
      </trkpt>
      <trkpt lat="47.3482" lon="-2.46239">
        <ele>38</ele>
        <time>2023-11-01T23:20:59Z</time>
      </trkpt>
      <trkpt lat="47.34819" lon="-2.46217">
        <ele>38</ele>
        <time>2023-11-01T23:21:19Z</time>
      </trkpt>
      <trkpt lat="47.34815" lon="-2.46152">
        <ele>37</ele>
        <time>2023-11-01T23:22:18Z</time>
      </trkpt>
      <trkpt lat="47.34814" lon="-2.46117">
        <ele>37</ele>
        <time>2023-11-01T23:22:49Z</time>
      </trkpt>
      <trkpt lat="47.34812" lon="-2.46088">
        <ele>36</ele>
        <time>2023-11-01T23:23:16Z</time>
      </trkpt>
      <trkpt lat="47.34806" lon="-2.46044">
        <ele>37</ele>
        <time>2023-11-01T23:23:56Z</time>
      </trkpt>
      <trkpt lat="47.34795" lon="-2.4596">
        <ele>39</ele>
        <time>2023-11-01T23:25:14Z</time>
      </trkpt>
      <trkpt lat="47.3479" lon="-2.45906">
        <ele>40</ele>
        <time>2023-11-01T23:26:03Z</time>
      </trkpt>
      <trkpt lat="47.34789" lon="-2.45888">
        <ele>41</ele>
        <time>2023-11-01T23:26:19Z</time>
      </trkpt>
      <trkpt lat="47.3479" lon="-2.45879">
        <ele>41</ele>
        <time>2023-11-01T23:26:28Z</time>
      </trkpt>
      <trkpt lat="47.34787" lon="-2.45875">
        <ele>41</ele>
        <time>2023-11-01T23:26:33Z</time>
      </trkpt>
      <trkpt lat="47.34784" lon="-2.45866">
        <ele>42</ele>
        <time>2023-11-01T23:26:42Z</time>
      </trkpt>
      <trkpt lat="47.34782" lon="-2.45857">
        <ele>42</ele>
        <time>2023-11-01T23:26:51Z</time>
      </trkpt>
      <trkpt lat="47.3478" lon="-2.45823">
        <ele>42</ele>
        <time>2023-11-01T23:27:21Z</time>
      </trkpt>
      <trkpt lat="47.34776" lon="-2.45793">
        <ele>42</ele>
        <time>2023-11-01T23:27:49Z</time>
      </trkpt>
      <trkpt lat="47.34768" lon="-2.45756">
        <ele>43</ele>
        <time>2023-11-01T23:28:24Z</time>
      </trkpt>
      <trkpt lat="47.34756" lon="-2.45718">
        <ele>43</ele>
        <time>2023-11-01T23:29:02Z</time>
      </trkpt>
      <trkpt lat="47.34738" lon="-2.45673">
        <ele>43</ele>
        <time>2023-11-01T23:29:49Z</time>
      </trkpt>
      <trkpt lat="47.34711" lon="-2.4562">
        <ele>43</ele>
        <time>2023-11-01T23:30:49Z</time>
      </trkpt>
      <trkpt lat="47.34692" lon="-2.4558">
        <ele>44</ele>
        <time>2023-11-01T23:31:33Z</time>
      </trkpt>
      <trkpt lat="47.3464" lon="-2.45435">
        <ele>42</ele>
        <time>2023-11-01T23:34:02Z</time>
      </trkpt>
      <trkpt lat="47.34621" lon="-2.45384">
        <ele>41</ele>
        <time>2023-11-01T23:34:54Z</time>
      </trkpt>
      <trkpt lat="47.34593" lon="-2.45316">
        <ele>43</ele>
        <time>2023-11-01T23:36:06Z</time>
      </trkpt>
      <trkpt lat="47.34576" lon="-2.45283">
        <ele>43</ele>
        <time>2023-11-01T23:36:44Z</time>
      </trkpt>
      <trkpt lat="47.34526" lon="-2.45209">
        <ele>42</ele>
        <time>2023-11-01T23:38:18Z</time>
      </trkpt>
      <trkpt lat="47.34512" lon="-2.45187">
        <ele>42</ele>
        <time>2023-11-01T23:38:46Z</time>
      </trkpt>
      <trkpt lat="47.34467" lon="-2.45134">
        <ele>43</ele>
        <time>2023-11-01T23:40:02Z</time>
      </trkpt>
      <trkpt lat="47.34464" lon="-2.4513">
        <ele>43</ele>
        <time>2023-11-01T23:40:08Z</time>
      </trkpt>
      <trkpt lat="47.34459" lon="-2.45122">
        <ele>44</ele>
        <time>2023-11-01T23:40:18Z</time>
      </trkpt>
      <trkpt lat="47.34447" lon="-2.45095">
        <ele>44</ele>
        <time>2023-11-01T23:40:47Z</time>
      </trkpt>
      <trkpt lat="47.34404" lon="-2.44997">
        <ele>46</ele>
        <time>2023-11-01T23:42:32Z</time>
      </trkpt>
      <trkpt lat="47.34397" lon="-2.44982">
        <ele>46</ele>
        <time>2023-11-01T23:42:49Z</time>
      </trkpt>
      <trkpt lat="47.34384" lon="-2.44997">
        <ele>47</ele>
        <time>2023-11-01T23:43:11Z</time>
      </trkpt>
      <trkpt lat="47.34359" lon="-2.45025">
        <ele>47</ele>
        <time>2023-11-01T23:43:53Z</time>
      </trkpt>
      <trkpt lat="47.34311" lon="-2.45078">
        <ele>46</ele>
        <time>2023-11-01T23:45:13Z</time>
      </trkpt>
      <trkpt lat="47.34298" lon="-2.45091">
        <ele>46</ele>
        <time>2023-11-01T23:45:34Z</time>
      </trkpt>
      <trkpt lat="47.34136" lon="-2.4521">
        <ele>47</ele>
        <time>2023-11-01T23:49:35Z</time>
      </trkpt>
      <trkpt lat="47.34063" lon="-2.45265">
        <ele>47</ele>
        <time>2023-11-01T23:51:25Z</time>
      </trkpt>
      <trkpt lat="47.3405" lon="-2.45225">
        <ele>47</ele>
        <time>2023-11-01T23:52:05Z</time>
      </trkpt>
      <trkpt lat="47.3404" lon="-2.45186">
        <ele>47</ele>
        <time>2023-11-01T23:52:42Z</time>
      </trkpt>
      <trkpt lat="47.34033" lon="-2.45153">
        <ele>46</ele>
        <time>2023-11-01T23:53:14Z</time>
      </trkpt>
      <trkpt lat="47.34015" lon="-2.45102">
        <ele>46</ele>
        <time>2023-11-01T23:54:06Z</time>
      </trkpt>
      <trkpt lat="47.34002" lon="-2.45059">
        <ele>46</ele>
        <time>2023-11-01T23:54:48Z</time>
      </trkpt>
      <trkpt lat="47.33988" lon="-2.4499">
        <ele>46</ele>
        <time>2023-11-01T23:55:53Z</time>
      </trkpt>
      <trkpt lat="47.33984" lon="-2.44971">
        <ele>45</ele>
        <time>2023-11-01T23:56:11Z</time>
      </trkpt>
      <trkpt lat="47.33985" lon="-2.44948">
        <ele>45</ele>
        <time>2023-11-01T23:56:32Z</time>
      </trkpt>
      <trkpt lat="47.33989" lon="-2.4492">
        <ele>45</ele>
        <time>2023-11-01T23:56:58Z</time>
      </trkpt>
      <trkpt lat="47.33993" lon="-2.44902">
        <ele>45</ele>
        <time>2023-11-01T23:57:15Z</time>
      </trkpt>
      <trkpt lat="47.33998" lon="-2.44878">
        <ele>44</ele>
        <time>2023-11-01T23:57:38Z</time>
      </trkpt>
      <trkpt lat="47.34033" lon="-2.44765">
        <ele>43</ele>
        <time>2023-11-01T23:59:30Z</time>
      </trkpt>
      <trkpt lat="47.34044" lon="-2.447">
        <ele>42</ele>
        <time>2023-11-02T00:00:31Z</time>
      </trkpt>
      <trkpt lat="47.3405" lon="-2.44639">
        <ele>42</ele>
        <time>2023-11-02T00:01:27Z</time>
      </trkpt>
      <trkpt lat="47.34052" lon="-2.44582">
        <ele>42</ele>
        <time>2023-11-02T00:02:18Z</time>
      </trkpt>
      <trkpt lat="47.3405" lon="-2.44497">
        <ele>42</ele>
        <time>2023-11-02T00:03:35Z</time>
      </trkpt>
      <trkpt lat="47.34049" lon="-2.44472">
        <ele>42</ele>
        <time>2023-11-02T00:03:58Z</time>
      </trkpt>
      <trkpt lat="47.34048" lon="-2.44465">
        <ele>42</ele>
        <time>2023-11-02T00:04:04Z</time>
      </trkpt>
      <trkpt lat="47.34047" lon="-2.44453">
        <ele>42</ele>
        <time>2023-11-02T00:04:15Z</time>
      </trkpt>
      <trkpt lat="47.34043" lon="-2.44442">
        <ele>42</ele>
        <time>2023-11-02T00:04:27Z</time>
      </trkpt>
      <trkpt lat="47.34038" lon="-2.44434">
        <ele>42</ele>
        <time>2023-11-02T00:04:36Z</time>
      </trkpt>
      <trkpt lat="47.34025" lon="-2.44423">
        <ele>42</ele>
        <time>2023-11-02T00:04:56Z</time>
      </trkpt>
      <trkpt lat="47.34014" lon="-2.44415">
        <ele>42</ele>
        <time>2023-11-02T00:05:13Z</time>
      </trkpt>
      <trkpt lat="47.33994" lon="-2.444">
        <ele>42</ele>
        <time>2023-11-02T00:05:43Z</time>
      </trkpt>
      <trkpt lat="47.33987" lon="-2.44396">
        <ele>42</ele>
        <time>2023-11-02T00:05:53Z</time>
      </trkpt>
      <trkpt lat="47.33964" lon="-2.44382">
        <ele>43</ele>
        <time>2023-11-02T00:06:26Z</time>
      </trkpt>
      <trkpt lat="47.33926" lon="-2.44359">
        <ele>43</ele>
        <time>2023-11-02T00:07:21Z</time>
      </trkpt>
      <trkpt lat="47.33902" lon="-2.44352">
        <ele>44</ele>
        <time>2023-11-02T00:07:53Z</time>
      </trkpt>
      <trkpt lat="47.33895" lon="-2.4435">
        <ele>44</ele>
        <time>2023-11-02T00:08:03Z</time>
      </trkpt>
      <trkpt lat="47.33867" lon="-2.44348">
        <ele>45</ele>
        <time>2023-11-02T00:08:40Z</time>
      </trkpt>
      <trkpt lat="47.33857" lon="-2.44347">
        <ele>46</ele>
        <time>2023-11-02T00:08:54Z</time>
      </trkpt>
      <trkpt lat="47.33801" lon="-2.44342">
        <ele>47</ele>
        <time>2023-11-02T00:10:08Z</time>
      </trkpt>
      <trkpt lat="47.33759" lon="-2.4433">
        <ele>46</ele>
        <time>2023-11-02T00:11:06Z</time>
      </trkpt>
      <trkpt lat="47.33747" lon="-2.44318">
        <ele>47</ele>
        <time>2023-11-02T00:11:25Z</time>
      </trkpt>
      <trkpt lat="47.33724" lon="-2.44298">
        <ele>48</ele>
        <time>2023-11-02T00:12:01Z</time>
      </trkpt>
      <trkpt lat="47.33679" lon="-2.44254">
        <ele>49</ele>
        <time>2023-11-02T00:13:13Z</time>
      </trkpt>
      <trkpt lat="47.33659" lon="-2.44234">
        <ele>49</ele>
        <time>2023-11-02T00:13:45Z</time>
      </trkpt>
      <trkpt lat="47.33622" lon="-2.44203">
        <ele>48</ele>
        <time>2023-11-02T00:14:42Z</time>
      </trkpt>
      <trkpt lat="47.33528" lon="-2.4413">
        <ele>48</ele>
        <time>2023-11-02T00:17:03Z</time>
      </trkpt>
      <trkpt lat="47.33472" lon="-2.4408">
        <ele>47</ele>
        <time>2023-11-02T00:18:31Z</time>
      </trkpt>
      <trkpt lat="47.33428" lon="-2.4404">
        <ele>48</ele>
        <time>2023-11-02T00:19:40Z</time>
      </trkpt>
      <trkpt lat="47.33392" lon="-2.44004">
        <ele>48</ele>
        <time>2023-11-02T00:20:38Z</time>
      </trkpt>
      <trkpt lat="47.33343" lon="-2.43948">
        <ele>48</ele>
        <time>2023-11-02T00:22:00Z</time>
      </trkpt>
      <trkpt lat="47.33331" lon="-2.43937">
        <ele>48</ele>
        <time>2023-11-02T00:22:19Z</time>
      </trkpt>
      <trkpt lat="47.33297" lon="-2.43917">
        <ele>48</ele>
        <time>2023-11-02T00:23:08Z</time>
      </trkpt>
      <trkpt lat="47.33281" lon="-2.43908">
        <ele>48</ele>
        <time>2023-11-02T00:23:31Z</time>
      </trkpt>
      <trkpt lat="47.33273" lon="-2.43905">
        <ele>48</ele>
        <time>2023-11-02T00:23:42Z</time>
      </trkpt>
      <trkpt lat="47.33244" lon="-2.43897">
        <ele>48</ele>
        <time>2023-11-02T00:24:21Z</time>
      </trkpt>
      <trkpt lat="47.33234" lon="-2.43894">
        <ele>48</ele>
        <time>2023-11-02T00:24:35Z</time>
      </trkpt>
      <trkpt lat="47.33227" lon="-2.43889">
        <ele>47</ele>
        <time>2023-11-02T00:24:45Z</time>
      </trkpt>
      <trkpt lat="47.33211" lon="-2.43873">
        <ele>47</ele>
        <time>2023-11-02T00:25:11Z</time>
      </trkpt>
      <trkpt lat="47.332" lon="-2.43851">
        <ele>47</ele>
        <time>2023-11-02T00:25:36Z</time>
      </trkpt>
      <trkpt lat="47.33194" lon="-2.43837">
        <ele>47</ele>
        <time>2023-11-02T00:25:51Z</time>
      </trkpt>
      <trkpt lat="47.33185" lon="-2.43809">
        <ele>47</ele>
        <time>2023-11-02T00:26:19Z</time>
      </trkpt>
      <trkpt lat="47.33019" lon="-2.43872">
        <ele>47</ele>
        <time>2023-11-02T00:30:08Z</time>
      </trkpt>
      <trkpt lat="47.33004" lon="-2.43879">
        <ele>47</ele>
        <time>2023-11-02T00:30:29Z</time>
      </trkpt>
      <trkpt lat="47.32987" lon="-2.43888">
        <ele>47</ele>
        <time>2023-11-02T00:30:53Z</time>
      </trkpt>
      <trkpt lat="47.32983" lon="-2.4389">
        <ele>47</ele>
        <time>2023-11-02T00:30:58Z</time>
      </trkpt>
      <trkpt lat="47.32937" lon="-2.43929">
        <ele>47</ele>
        <time>2023-11-02T00:32:09Z</time>
      </trkpt>
    </trkseg>
  </trk>
</gpx>